Time;durP1;ratioP1;P1;durP2;ratioP2;P2;SDS_P1;SDS_P2;PMS_P1;PMS_P2;Temp;Humidity;BMP_temperature;BMP_pressure;BME280_temperature;BME280_humidity;BME280_pressure;Samples;Min_cycle;Max_cycle;Signal;HPM_P1;HPM_P2
2022/08/15 00:00:37;;;;;;;9.40;8.50;;;26.20;86.80;;;;;;5089291;28;20473;-85
2022/08/15 00:03:04;;;;;;;9.37;7.50;;;26.10;86.90;;;;;;5089273;28;20485;-84
2022/08/15 00:05:34;;;;;;;11.77;8.87;;;26.10;87.10;;;;;;5091745;28;20496;-82
2022/08/15 00:08:01;;;;;;;7.60;6.90;;;26.10;87.00;;;;;;5083188;28;20587;-82
2022/08/15 00:10:29;;;;;;;8.23;7.43;;;26.00;87.10;;;;;;5085084;28;20958;-86
2022/08/15 00:13:00;;;;;;;9.70;7.90;;;26.00;87.30;;;;;;5074333;28;20468;-85
2022/08/15 00:15:27;;;;;;;8.40;7.60;;;25.90;87.40;;;;;;5080495;28;20472;-82
2022/08/15 00:17:55;;;;;;;8.53;7.83;;;25.90;87.60;;;;;;5081538;28;20477;-84
2022/08/15 00:20:22;;;;;;;8.63;7.93;;;25.90;87.80;;;;;;5081770;28;20445;-83
2022/08/15 00:22:51;;;;;;;9.07;8.20;;;25.80;88.00;;;;;;5083097;28;20448;-83
2022/08/15 00:25:19;;;;;;;8.40;7.70;;;25.70;88.30;;;;;;5085180;28;20520;-85
2022/08/15 00:27:48;;;;;;;9.30;8.27;;;25.70;88.60;;;;;;5084125;28;20456;-85
2022/08/15 00:30:15;;;;;;;9.43;7.87;;;25.60;88.90;;;;;;5082586;28;20443;-85
2022/08/15 00:32:42;;;;;;;9.90;8.17;;;25.60;89.10;;;;;;5086901;28;20948;-83
2022/08/15 00:37:55;;;;;;;9.40;8.47;;;25.50;89.60;;;;;;5076884;28;20446;-84
2022/08/15 00:40:22;;;;;;;9.30;8.50;;;25.40;90.00;;;;;;5088866;28;20444;-82
2022/08/15 00:42:52;;;;;;;10.40;9.00;;;25.30;90.00;;;;;;5083309;28;20449;-85
2022/08/15 00:45:21;;;;;;;9.33;8.53;;;25.30;90.10;;;;;;5077018;28;20515;-83
2022/08/15 00:48:41;;;;;;;9.37;8.57;;;25.20;90.20;;;;;;5091346;28;20461;-83
2022/08/15 00:50:38;;;;;;;9.23;8.33;;;25.30;90.30;;;;;;5090829;28;20439;-85
2022/08/15 00:53:08;;;;;;;12.60;8.43;;;25.20;90.30;;;;;;5096167;28;20508;-84
2022/08/15 00:55:40;;;;;;;9.53;7.93;;;25.20;90.40;;;;;;5089506;28;20503;-81
2022/08/15 00:58:10;;;;;;;8.07;7.43;;;25.20;90.50;;;;;;5085629;28;20461;-82
2022/08/15 01:00:40;;;;;;;7.97;7.27;;;25.20;90.60;;;;;;5086350;28;20785;-83
2022/08/15 01:03:11;;;;;;;8.73;7.60;;;25.10;90.60;;;;;;5082730;28;20520;-86
2022/08/15 01:05:39;;;;;;;8.93;7.57;;;25.10;90.70;;;;;;5075469;28;20464;-82
2022/08/15 01:08:06;;;;;;;7.67;7.07;;;25.00;90.90;;;;;;5080521;28;20468;-84
2022/08/15 01:10:34;;;;;;;7.90;6.87;;;25.00;91.00;;;;;;5080777;28;20894;-84
2022/08/15 01:13:01;;;;;;;8.00;7.20;;;25.00;91.10;;;;;;5087911;28;20484;-80
2022/08/15 01:15:31;;;;;;;10.20;8.03;;;24.90;91.20;;;;;;5087456;28;20529;-84
2022/08/15 01:17:58;;;;;;;7.80;7.20;;;24.90;91.30;;;;;;5087816;28;20533;-81
2022/08/15 01:20:29;;;;;;;14.70;8.13;;;24.90;91.40;;;;;;5085303;28;20517;-83
2022/08/15 01:23:09;;;;;;;8.20;7.40;;;24.80;91.40;;;;;;5090006;28;20497;-84
2022/08/15 01:25:42;;;;;;;7.93;7.23;;;24.80;91.60;;;;;;5084456;28;20550;-83
2022/08/15 01:28:14;;;;;;;8.97;8.07;;;24.80;91.70;;;;;;5096287;28;20481;-85
2022/08/15 01:30:45;;;;;;;8.03;7.30;;;24.70;91.60;;;;;;5083973;28;20482;-82
2022/08/15 01:33:13;;;;;;;8.20;7.40;;;24.70;92.10;;;;;;5080389;28;20442;-83
2022/08/15 01:35:40;;;;;;;9.10;7.93;;;24.70;91.80;;;;;;5083344;28;20505;-83
2022/08/15 01:38:20;;;;;;;7.77;7.07;;;24.70;91.90;;;;;;5084969;28;20437;-85
2022/08/15 01:40:58;;;;;;;9.27;8.37;;;24.60;92.10;;;;;;5085618;28;20512;-83
2022/08/15 01:43:28;;;;;;;8.53;7.30;;;24.60;92.20;;;;;;5094617;28;20471;-84
2022/08/15 01:46:02;;;;;;;8.97;8.07;;;24.60;92.30;;;;;;5086748;28;20479;-83
2022/08/15 01:48:34;;;;;;;8.33;7.53;;;24.60;92.40;;;;;;5077226;28;20558;-81
2022/08/15 01:51:07;;;;;;;11.23;7.10;;;24.50;92.40;;;;;;5082796;28;20441;-82
2022/08/15 01:53:40;;;;;;;8.20;7.17;;;24.50;92.50;;;;;;5091295;28;20434;-81
2022/08/15 01:56:15;;;;;;;7.70;7.00;;;24.40;92.60;;;;;;5097292;28;20501;-79
2022/08/15 01:58:45;;;;;;;7.07;6.47;;;24.40;92.80;;;;;;5099862;28;20438;-78
2022/08/15 02:01:14;;;;;;;9.20;7.30;;;24.40;92.90;;;;;;5100845;28;20440;-80
2022/08/15 02:03:43;;;;;;;7.53;6.87;;;24.40;92.90;;;;;;5100945;28;20456;-79
2022/08/15 02:06:13;;;;;;;8.57;7.77;;;24.40;93.00;;;;;;5101151;28;20478;-79
2022/08/15 02:08:41;;;;;;;8.00;7.30;;;24.40;93.10;;;;;;5101274;28;20452;-80
2022/08/15 02:11:13;;;;;;;9.90;7.10;;;24.30;93.10;;;;;;5101017;28;20437;-80
2022/08/15 02:13:41;;;;;;;7.83;6.80;;;24.40;93.20;;;;;;5101192;28;20496;-81
2022/08/15 02:16:08;;;;;;;11.90;7.20;;;24.40;93.20;;;;;;5100937;28;20456;-82
2022/08/15 02:18:35;;;;;;;8.97;7.37;;;24.30;93.30;;;;;;5098706;28;20435;-84
2022/08/15 02:21:02;;;;;;;8.60;7.30;;;24.40;93.30;;;;;;5086608;28;20460;-84
2022/08/15 02:23:29;;;;;;;7.67;6.90;;;24.40;93.30;;;;;;5084346;28;20482;-83
2022/08/15 02:25:56;;;;;;;6.43;5.73;;;24.40;93.30;;;;;;5082097;28;20549;-83
2022/08/15 02:28:25;;;;;;;6.77;5.83;;;24.40;93.40;;;;;;5092120;28;20518;-84
2022/08/15 02:30:54;;;;;;;11.00;6.60;;;24.40;93.50;;;;;;5085959;28;20895;-85
2022/08/15 02:33:22;;;;;;;8.90;7.00;;;24.40;93.50;;;;;;5089185;28;20472;-82
2022/08/15 02:35:51;;;;;;;7.73;7.00;;;24.30;93.60;;;;;;5085560;28;20464;-82
2022/08/15 02:38:18;;;;;;;10.40;6.10;;;24.30;93.70;;;;;;5087201;28;20883;-84
2022/08/15 02:40:48;;;;;;;9.07;6.30;;;24.40;93.80;;;;;;5085144;28;20492;-84
2022/08/15 02:43:21;;;;;;;10.17;7.20;;;24.30;93.90;;;;;;5086747;28;20425;-82
2022/08/15 02:45:49;;;;;;;7.00;6.00;;;24.20;94.00;;;;;;5082492;28;20543;-81
2022/08/15 02:48:22;;;;;;;6.50;5.97;;;24.20;94.20;;;;;;5087021;28;20449;-83
2022/08/15 02:50:49;;;;;;;6.80;6.10;;;24.20;94.30;;;;;;5077889;28;20426;-86
2022/08/15 02:53:19;;;;;;;7.80;7.00;;;24.20;94.40;;;;;;5080670;28;20441;-82
2022/08/15 02:55:48;;;;;;;7.40;6.43;;;24.20;94.60;;;;;;5092104;28;20470;-81
2022/08/15 02:58:21;;;;;;;6.77;6.17;;;24.10;94.70;;;;;;5096922;28;20454;-84
2022/08/15 03:00:53;;;;;;;11.20;6.50;;;24.10;94.90;;;;;;5091472;28;20454;-82
2022/08/15 03:03:20;;;;;;;6.40;5.90;;;24.10;95.00;;;;;;5093601;28;20456;-81
2022/08/15 03:05:48;;;;;;;8.30;7.60;;;24.10;95.10;;;;;;5094163;28;20503;-82
2022/08/15 03:08:16;;;;;;;7.63;6.83;;;24.10;95.00;;;;;;5093215;28;20446;-83
2022/08/15 03:10:49;;;;;;;9.33;6.47;;;24.10;95.20;;;;;;5081637;28;21009;-82
2022/08/15 03:13:18;;;;;;;8.70;7.13;;;24.00;95.40;;;;;;5097531;28;20449;-82
2022/08/15 03:15:52;;;;;;;8.80;6.90;;;24.00;95.60;;;;;;5089279;28;20544;-84
2022/08/15 03:18:24;;;;;;;8.07;6.40;;;24.10;95.40;;;;;;5078196;28;20478;-83
2022/08/15 03:20:52;;;;;;;7.33;6.70;;;24.00;95.50;;;;;;5085628;28;20446;-83
2022/08/15 03:23:20;;;;;;;7.57;6.13;;;24.10;95.50;;;;;;5082467;28;20861;-81
2022/08/15 03:25:53;;;;;;;6.87;6.37;;;24.10;95.40;;;;;;5087316;28;20552;-83
2022/08/15 03:28:22;;;;;;;10.00;6.77;;;24.10;95.30;;;;;;5091730;28;20453;-83
2022/08/15 03:30:49;;;;;;;8.93;6.90;;;24.00;95.40;;;;;;5100491;28;20452;-81
2022/08/15 03:33:16;;;;;;;7.03;6.40;;;24.00;95.50;;;;;;5092714;28;20920;-78
2022/08/15 03:35:47;;;;;;;8.67;6.27;;;24.00;95.60;;;;;;5089535;28;20532;-81
2022/08/15 03:38:15;;;;;;;7.73;6.93;;;23.90;95.90;;;;;;5090453;28;20867;-83
2022/08/15 03:40:44;;;;;;;10.27;7.43;;;23.90;95.90;;;;;;5084579;28;20478;-81
2022/08/15 03:43:13;;;;;;;8.80;5.77;;;23.90;95.90;;;;;;5085852;28;20455;-82
2022/08/15 03:45:43;;;;;;;7.50;6.80;;;24.00;95.90;;;;;;5084727;28;20508;-84
2022/08/15 03:48:10;;;;;;;8.00;7.20;;;24.00;95.80;;;;;;5081712;28;20463;-82
2022/08/15 03:50:37;;;;;;;6.93;6.33;;;24.00;95.80;;;;;;5068545;28;20464;-81
2022/08/15 03:53:07;;;;;;;8.57;7.80;;;23.90;95.80;;;;;;5082156;28;20462;-83
2022/08/15 03:55:37;;;;;;;7.63;6.93;;;23.90;95.90;;;;;;5086439;28;20497;-83
2022/08/15 03:58:04;;;;;;;7.67;6.60;;;23.90;96.00;;;;;;5079660;28;20449;-82
2022/08/15 04:00:34;;;;;;;7.43;6.80;;;23.80;96.00;;;;;;5089184;28;20487;-83
2022/08/15 04:03:07;;;;;;;7.70;7.00;;;23.80;96.10;;;;;;5081222;28;20459;-82
2022/08/15 04:05:36;;;;;;;8.07;7.40;;;23.80;96.30;;;;;;5084687;28;20489;-84
2022/08/15 04:08:13;;;;;;;9.53;8.23;;;23.70;96.50;;;;;;5078442;28;20481;-82
2022/08/15 04:10:43;;;;;;;10.53;7.83;;;23.70;96.60;;;;;;5073449;28;20464;-81
2022/08/15 04:13:11;;;;;;;9.00;8.20;;;23.60;96.80;;;;;;5078292;28;20989;-81
2022/08/15 04:15:39;;;;;;;8.73;7.83;;;23.50;97.00;;;;;;5090662;28;20457;-81
2022/08/15 04:18:07;;;;;;;8.40;7.70;;;23.40;97.30;;;;;;5088616;28;20437;-78
2022/08/15 04:20:34;;;;;;;10.17;7.37;;;23.30;97.50;;;;;;5093885;28;20438;-80
2022/08/15 04:23:01;;;;;;;9.77;8.87;;;23.20;97.70;;;;;;5098183;28;20468;-80
2022/08/15 04:25:31;;;;;;;8.43;7.70;;;23.10;98.00;;;;;;5097683;28;20489;-83
2022/08/15 04:28:03;;;;;;;9.37;8.57;;;23.10;98.20;;;;;;5091520;28;20437;-81
2022/08/15 04:30:32;;;;;;;8.03;7.23;;;23.10;98.20;;;;;;5089459;28;20429;-83
2022/08/15 04:33:08;;;;;;;7.73;7.03;;;23.10;98.40;;;;;;5087879;28;20433;-83
2022/08/15 04:35:35;;;;;;;8.70;7.80;;;23.10;98.50;;;;;;5098693;28;20488;-81
2022/08/15 04:38:02;;;;;;;8.80;7.90;;;23.10;98.50;;;;;;5097414;28;20432;-80
2022/08/15 04:40:31;;;;;;;10.80;8.40;;;23.10;98.40;;;;;;5096667;28;20449;-80
2022/08/15 04:42:59;;;;;;;9.63;7.10;;;23.10;98.50;;;;;;5093859;28;20442;-82
2022/08/15 04:45:26;;;;;;;9.17;7.30;;;23.20;98.50;;;;;;5087904;28;20485;-83
2022/08/15 04:47:54;;;;;;;9.57;7.00;;;23.10;98.50;;;;;;5088685;28;20532;-83
2022/08/15 04:50:21;;;;;;;10.27;7.83;;;23.10;98.60;;;;;;5081777;28;20995;-82
2022/08/15 04:52:51;;;;;;;7.90;7.10;;;23.10;98.90;;;;;;5089177;28;20464;-83
2022/08/15 04:55:20;;;;;;;8.70;7.80;;;23.20;98.90;;;;;;5080356;28;20525;-83
2022/08/15 04:57:48;;;;;;;8.27;7.47;;;23.20;98.80;;;;;;5089555;28;20494;-81
2022/08/15 05:00:18;;;;;;;8.43;7.63;;;23.20;98.70;;;;;;5093568;28;20445;-82
2022/08/15 05:02:59;;;;;;;10.13;7.50;;;23.30;98.70;;;;;;5085492;28;20438;-84
2022/08/15 05:05:26;;;;;;;9.20;7.50;;;23.40;98.60;;;;;;5083786;28;20484;-82
2022/08/15 05:07:53;;;;;;;11.90;7.43;;;23.40;98.30;;;;;;5098260;28;20468;-82
2022/08/15 05:10:20;;;;;;;8.17;7.27;;;23.50;98.10;;;;;;5092118;28;20512;-84
2022/08/15 05:12:49;;;;;;;10.83;7.40;;;23.50;98.00;;;;;;5082520;28;20865;-84
2022/08/15 05:15:19;;;;;;;8.80;7.27;;;23.60;97.90;;;;;;5084661;28;20582;-81
2022/08/15 05:17:46;;;;;;;8.23;6.93;;;23.70;97.80;;;;;;5083422;28;20532;-84
2022/08/15 05:20:14;;;;;;;8.00;7.20;;;23.70;97.70;;;;;;5094700;28;20459;-82
2022/08/15 05:22:55;;;;;;;8.10;7.40;;;23.80;97.70;;;;;;5092517;28;20453;-82
2022/08/15 05:25:23;;;;;;;8.03;7.33;;;23.80;97.50;;;;;;5094013;28;20523;-81
2022/08/15 05:27:51;;;;;;;10.60;7.80;;;23.80;97.30;;;;;;5093411;28;20505;-81
2022/08/15 05:30:24;;;;;;;10.40;7.50;;;23.80;97.30;;;;;;5087016;28;20452;-83
2022/08/15 05:33:01;;;;;;;9.13;7.77;;;24.00;97.20;;;;;;5088997;28;20448;-85
2022/08/15 05:35:30;;;;;;;8.60;7.73;;;24.00;97.10;;;;;;5084908;28;20874;-84
2022/08/15 05:37:59;;;;;;;9.37;8.40;;;24.10;96.90;;;;;;5090415;28;20456;-84
2022/08/15 05:40:29;;;;;;;12.90;8.00;;;24.10;96.90;;;;;;5084637;28;20438;-83
2022/08/15 05:43:08;;;;;;;9.63;8.60;;;24.10;96.70;;;;;;5091528;28;20453;-82
2022/08/15 05:45:39;;;;;;;8.67;7.87;;;24.20;96.80;;;;;;5092069;28;20485;-80
2022/08/15 05:48:12;;;;;;;9.70;8.20;;;24.20;96.80;;;;;;5086473;28;20865;-83
2022/08/15 05:50:49;;;;;;;10.00;7.90;;;24.30;96.60;;;;;;5082909;28;20465;-84
2022/08/15 05:53:25;;;;;;;17.23;8.83;;;24.40;96.40;;;;;;5090388;28;20475;-84
2022/08/15 05:55:59;;;;;;;9.03;8.13;;;24.60;96.00;;;;;;5092932;28;20896;-83
2022/08/15 05:58:40;;;;;;;12.60;9.20;;;24.70;95.90;;;;;;5084921;28;20437;-84
2022/08/15 06:01:39;;;;;;;15.80;7.77;;;24.80;95.60;;;;;;5081784;28;20446;-83
2022/08/15 06:04:17;;;;;;;8.97;8.07;;;24.80;95.30;;;;;;5069353;28;20456;-83
2022/08/15 06:06:50;;;;;;;12.13;8.40;;;24.90;95.20;;;;;;5087996;28;20484;-84
2022/08/15 06:09:35;;;;;;;18.63;8.93;;;24.90;95.20;;;;;;5089090;28;20455;-83
2022/08/15 06:12:07;;;;;;;11.67;8.30;;;25.00;95.00;;;;;;5085219;28;20441;-83
2022/08/15 06:14:41;;;;;;;8.87;7.97;;;25.10;95.20;;;;;;5088133;28;20452;-84
2022/08/15 06:17:18;;;;;;;15.67;9.00;;;25.10;95.00;;;;;;5079748;28;20500;-85
2022/08/15 06:19:48;;;;;;;15.83;8.60;;;25.30;94.60;;;;;;5076343;28;20445;-83
2022/08/15 06:22:28;;;;;;;12.33;10.50;;;25.40;94.30;;;;;;5092778;28;20472;-85
2022/08/15 06:25:05;;;;;;;13.13;9.40;;;25.40;94.00;;;;;;5079079;28;20637;-82
2022/08/15 06:27:42;;;;;;;9.07;7.30;;;25.60;93.60;;;;;;5086019;28;20462;-81
2022/08/15 06:30:13;;;;;;;12.20;7.57;;;25.70;93.40;;;;;;5083623;28;20446;-82
2022/08/15 06:32:47;;;;;;;10.33;7.93;;;25.80;93.00;;;;;;5092774;28;20418;-79
2022/08/15 06:35:23;;;;;;;10.30;7.53;;;25.90;92.80;;;;;;5102608;28;20462;-79
2022/08/15 06:37:58;;;;;;;12.73;8.37;;;25.90;92.60;;;;;;5092483;28;20417;-78
2022/08/15 06:40:44;;;;;;;9.47;8.57;;;25.80;92.70;;;;;;5096115;28;20801;-82
2022/08/15 06:43:13;;;;;;;9.30;7.13;;;25.90;92.60;;;;;;5072322;28;20891;-79
2022/08/15 06:45:45;;;;;;;8.40;6.60;;;25.90;92.60;;;;;;5082793;28;20486;-80
2022/08/15 06:48:15;;;;;;;10.60;8.20;;;26.00;92.30;;;;;;5096526;28;20446;-78
2022/08/15 06:50:49;;;;;;;11.27;7.83;;;26.20;92.20;;;;;;5086937;28;20570;-82
2022/08/15 06:53:21;;;;;;;8.43;7.60;;;26.30;91.90;;;;;;5082079;28;20454;-81
2022/08/15 06:55:54;;;;;;;8.70;7.80;;;26.40;91.90;;;;;;5073488;28;20511;-79
2022/08/15 06:58:35;;;;;;;13.63;9.83;;;26.50;91.70;;;;;;5089441;28;20426;-80
2022/08/15 07:01:27;;;;;;;8.93;7.33;;;26.40;91.90;;;;;;5082733;28;20458;-81
2022/08/15 07:04:05;;;;;;;11.53;9.30;;;26.60;91.80;;;;;;5070353;28;20717;-82
2022/08/15 07:06:40;;;;;;;14.03;8.93;;;26.60;91.80;;;;;;5084042;28;20492;-79
2022/08/15 07:09:24;;;;;;;10.50;9.00;;;26.40;92.10;;;;;;5084158;28;20465;-82
2022/08/15 07:12:01;;;;;;;15.60;9.10;;;26.40;92.10;;;;;;5080982;28;20449;-82
2022/08/15 07:14:35;;;;;;;14.00;9.67;;;26.40;92.00;;;;;;5089557;28;21042;-80
2022/08/15 07:17:12;;;;;;;12.70;9.10;;;26.30;92.10;;;;;;5088931;28;20449;-83
2022/08/15 07:19:39;;;;;;;14.77;8.57;;;26.40;92.40;;;;;;5084995;28;20453;-79
2022/08/15 07:22:09;;;;;;;13.43;8.30;;;26.30;92.00;;;;;;5093587;28;20432;-79
2022/08/15 07:24:38;;;;;;;10.90;8.37;;;26.30;92.20;;;;;;5088854;28;20450;-84
2022/08/15 07:27:12;;;;;;;12.33;7.90;;;26.40;91.90;;;;;;5089587;28;20475;-82
2022/08/15 07:29:45;;;;;;;12.83;8.20;;;26.50;92.10;;;;;;5089202;28;21030;-79
2022/08/15 07:32:22;;;;;;;8.63;7.53;;;26.70;91.70;;;;;;5093717;28;20457;-84
2022/08/15 07:34:58;;;;;;;13.43;8.90;;;26.90;91.40;;;;;;5087688;28;20546;-82
2022/08/15 07:37:32;;;;;;;9.03;8.23;;;27.00;91.20;;;;;;5079771;28;20472;-80
2022/08/15 07:40:02;;;;;;;12.90;9.40;;;27.20;90.70;;;;;;5097959;28;20486;-80
2022/08/15 07:42:30;;;;;;;9.10;8.03;;;27.30;90.50;;;;;;5088105;28;20503;-82
2022/08/15 07:45:07;;;;;;;8.60;7.77;;;27.50;89.50;;;;;;5078366;28;20569;-83
2022/08/15 07:47:36;;;;;;;12.80;8.43;;;27.50;89.30;;;;;;5100538;28;20468;-82
2022/08/15 07:50:07;;;;;;;10.73;9.07;;;27.50;89.30;;;;;;5096883;28;20476;-78
2022/08/15 07:52:34;;;;;;;9.17;8.30;;;27.50;89.20;;;;;;5088642;28;20609;-82
2022/08/15 07:55:17;;;;;;;10.57;8.23;;;27.40;89.80;;;;;;5073702;28;20461;-82
2022/08/15 07:58:02;;;;;;;13.70;8.77;;;27.60;89.10;;;;;;5084221;28;20440;-83
2022/08/15 08:00:30;;;;;;;13.07;9.30;;;27.80;88.80;;;;;;5080130;28;20509;-79
2022/08/15 08:03:02;;;;;;;14.77;9.67;;;28.00;88.80;;;;;;5076277;28;20472;-82
2022/08/15 08:05:34;;;;;;;11.13;9.63;;;28.10;88.10;;;;;;5086097;28;20484;-83
2022/08/15 08:08:04;;;;;;;20.00;10.00;;;28.20;87.30;;;;;;5090026;28;20852;-82
2022/08/15 08:10:35;;;;;;;11.30;9.70;;;28.30;88.10;;;;;;5087132;28;20437;-84
2022/08/15 08:13:28;;;;;;;17.60;12.13;;;28.80;86.60;;;;;;5088014;28;20460;-83
2022/08/15 08:16:03;;;;;;;10.60;8.90;;;28.40;86.60;;;;;;5094386;28;20528;-84
2022/08/15 08:18:42;;;;;;;13.50;9.27;;;28.30;87.50;;;;;;5090519;28;20437;-84
2022/08/15 08:21:14;;;;;;;12.30;8.53;;;28.50;87.50;;;;;;5093224;28;20467;-83
2022/08/15 08:23:45;;;;;;;16.00;9.80;;;28.30;86.00;;;;;;5086995;28;20433;-84
2022/08/15 08:26:26;;;;;;;10.07;9.17;;;28.40;86.80;;;;;;5077367;28;20486;-85
2022/08/15 08:29:01;;;;;;;10.17;9.13;;;28.60;86.00;;;;;;5086465;28;20437;-85
2022/08/15 08:31:36;;;;;;;8.43;7.70;;;28.90;85.10;;;;;;5087198;28;20413;-84
2022/08/15 08:34:11;;;;;;;10.30;9.30;;;29.20;84.20;;;;;;5075686;28;20453;-82
2022/08/15 08:36:46;;;;;;;11.27;8.50;;;29.50;83.10;;;;;;5094879;28;20548;-84
2022/08/15 08:39:28;;;;;;;9.60;8.80;;;29.80;82.60;;;;;;5078908;28;20464;-82
2022/08/15 08:42:03;;;;;;;10.17;9.03;;;29.70;82.20;;;;;;5089834;28;20437;-83
2022/08/15 08:44:39;;;;;;;9.70;8.80;;;29.70;82.20;;;;;;5091570;28;20476;-80
2022/08/15 08:47:21;;;;;;;10.00;8.80;;;29.60;82.30;;;;;;5093651;28;20539;-79
2022/08/15 08:50:03;;;;;;;9.40;8.50;;;29.70;82.10;;;;;;5087897;28;20464;-80
2022/08/15 08:52:39;;;;;;;9.00;8.30;;;29.70;82.50;;;;;;5096344;28;20433;-79
2022/08/15 08:55:09;;;;;;;10.47;9.50;;;29.60;82.20;;;;;;5091114;28;20496;-81
2022/08/15 08:57:41;;;;;;;8.90;8.10;;;29.90;81.40;;;;;;5095207;28;20440;-81
2022/08/15 09:00:14;;;;;;;9.50;8.60;;;30.00;81.20;;;;;;5096453;28;20445;-81
2022/08/15 09:02:46;;;;;;;9.00;8.30;;;30.30;80.60;;;;;;5103506;28;20499;-82
2022/08/15 09:05:27;;;;;;;9.30;8.40;;;30.80;79.00;;;;;;5097218;28;20477;-80
2022/08/15 09:07:59;;;;;;;11.60;9.60;;;32.30;75.10;;;;;;5092630;28;20446;-85
2022/08/15 09:10:29;;;;;;;12.53;8.93;;;34.10;71.50;;;;;;5095042;28;20445;-82
2022/08/15 09:15:43;;;;;;;8.97;8.23;;;34.90;65.90;;;;;;5084715;28;20468;-85
2022/08/15 09:18:17;;;;;;;9.73;8.80;;;35.30;65.60;;;;;;5082525;28;20992;-84
2022/08/15 09:20:46;;;;;;;8.47;7.37;;;35.30;64.30;;;;;;5072692;28;20446;-85
2022/08/15 09:23:15;;;;;;;10.27;9.27;;;35.20;64.00;;;;;;5088086;28;20921;-85
2022/08/15 09:25:50;;;;;;;12.93;8.20;;;34.70;64.20;;;;;;5082141;28;20540;-83
2022/08/15 09:28:22;;;;;;;10.27;8.40;;;34.30;64.80;;;;;;5083401;28;20474;-86
2022/08/15 09:30:50;;;;;;;11.47;9.50;;;34.10;66.00;;;;;;5075267;28;20448;-85
2022/08/15 09:33:41;;;;;;;9.77;8.97;;;33.50;66.60;;;;;;5078481;28;20615;-85
2022/08/15 09:36:35;;;;;;;10.97;8.90;;;33.50;67.60;;;;;;5077630;28;20491;-83
2022/08/15 09:39:16;;;;;;;8.30;7.60;;;33.50;66.70;;;;;;5072703;28;20448;-83
2022/08/15 09:41:57;;;;;;;9.80;8.80;;;33.20;67.10;;;;;;5085457;28;20869;-82
2022/08/15 09:44:46;;;;;;;10.03;9.23;;;33.20;67.50;;;;;;5083855;28;20525;-83
2022/08/15 09:47:39;;;;;;;12.87;9.73;;;33.80;66.00;;;;;;5090075;28;20535;-84
2022/08/15 09:50:20;;;;;;;11.10;9.40;;;34.60;64.60;;;;;;5081484;28;20464;-84
2022/08/15 09:52:59;;;;;;;10.00;9.10;;;35.20;63.30;;;;;;5078335;28;20811;-84
2022/08/15 09:55:31;;;;;;;9.67;8.87;;;35.90;61.80;;;;;;5078947;28;20578;-84
2022/08/15 09:57:58;;;;;;;14.00;9.37;;;35.20;61.40;;;;;;5091330;28;20456;-82
2022/08/15 10:00:32;;;;;;;10.27;9.27;;;35.00;61.40;;;;;;5085819;28;20442;-82
2022/08/15 10:03:07;;;;;;;13.00;10.47;;;34.80;61.90;;;;;;5087548;28;20436;-85
2022/08/15 10:05:47;;;;;;;10.30;9.30;;;34.30;62.60;;;;;;5085345;28;20523;-84
2022/08/15 10:08:16;;;;;;;11.07;9.97;;;33.90;63.00;;;;;;5080705;28;20444;-85
2022/08/15 10:10:51;;;;;;;9.33;8.43;;;33.60;64.00;;;;;;5084100;28;20444;-83
2022/08/15 10:13:47;;;;;;;10.63;9.50;;;33.20;65.40;;;;;;5101446;28;20474;-85
2022/08/15 10:16:42;;;;;;;11.57;10.47;;;33.00;65.50;;;;;;5088424;28;20462;-84
2022/08/15 10:19:29;;;;;;;10.37;9.47;;;32.80;66.80;;;;;;5080662;28;20441;-82
2022/08/15 10:21:59;;;;;;;11.00;9.90;;;32.80;66.70;;;;;;5096046;28;20459;-85
2022/08/15 10:24:32;;;;;;;9.80;8.90;;;33.90;65.50;;;;;;5100895;28;20441;-84
2022/08/15 10:27:17;;;;;;;10.40;9.00;;;35.60;61.20;;;;;;5094011;28;20476;-83
2022/08/15 10:29:48;;;;;;;10.27;9.40;;;36.40;58.50;;;;;;5098671;28;20449;-84
2022/08/15 10:32:26;;;;;;;8.97;8.17;;;36.50;57.80;;;;;;5100080;28;20440;-83
2022/08/15 10:35:02;;;;;;;12.67;9.10;;;37.20;57.40;;;;;;5097412;28;20465;-81
2022/08/15 10:37:32;;;;;;;9.00;8.10;;;37.40;55.60;;;;;;5093299;28;20484;-81
2022/08/15 10:40:27;;;;;;;10.13;9.33;;;37.60;54.90;;;;;;5090250;28;20465;-82
2022/08/15 10:43:08;;;;;;;11.70;8.90;;;36.70;55.80;;;;;;5093535;28;20432;-80
2022/08/15 10:45:45;;;;;;;10.33;9.33;;;35.80;56.60;;;;;;5087611;28;20520;-81
2022/08/15 10:48:24;;;;;;;9.07;8.27;;;35.50;57.10;;;;;;5093575;28;20441;-81
2022/08/15 10:51:01;;;;;;;10.80;8.53;;;35.50;57.40;;;;;;5090787;28;20453;-81
2022/08/15 10:53:42;;;;;;;9.37;8.30;;;35.20;57.20;;;;;;5093056;28;20451;-79
2022/08/15 10:56:16;;;;;;;13.70;10.10;;;35.20;57.60;;;;;;5085603;28;20485;-82
2022/08/15 10:58:45;;;;;;;10.83;9.20;;;35.20;57.70;;;;;;5089365;28;20464;-81
2022/08/15 11:01:20;;;;;;;9.70;7.93;;;35.10;57.70;;;;;;5095741;28;20448;-81
2022/08/15 11:03:53;;;;;;;9.93;8.73;;;35.10;57.90;;;;;;5091581;28;20479;-82
2022/08/15 11:06:23;;;;;;;15.43;9.40;;;34.90;58.10;;;;;;5097045;28;20450;-81
2022/08/15 11:09:00;;;;;;;10.23;9.27;;;34.70;57.80;;;;;;5099034;28;20441;-83
2022/08/15 11:11:55;;;;;;;9.93;9.13;;;34.50;57.90;;;;;;5100600;28;20456;-82
2022/08/15 11:14:26;;;;;;;11.40;9.00;;;34.30;58.40;;;;;;5094198;28;20452;-81
2022/08/15 11:16:54;;;;;;;9.77;8.80;;;33.60;58.70;;;;;;5094330;28;20480;-82
2022/08/15 11:19:23;;;;;;;10.73;9.63;;;32.70;60.00;;;;;;5090446;28;20441;-84
2022/08/15 11:21:52;;;;;;;9.70;8.67;;;32.90;61.00;;;;;;5100236;28;20465;-83
2022/08/15 11:24:28;;;;;;;17.40;9.80;;;32.80;61.70;;;;;;5093082;28;20473;-81
2022/08/15 11:27:12;;;;;;;10.60;9.60;;;32.70;62.20;;;;;;5087130;28;20446;-80
2022/08/15 11:29:46;;;;;;;9.67;8.90;;;33.10;62.40;;;;;;5097166;28;20724;-79
2022/08/15 11:32:23;;;;;;;10.50;9.50;;;33.20;60.20;;;;;;5091268;28;20426;-80
2022/08/15 11:34:54;;;;;;;12.77;8.87;;;33.30;60.40;;;;;;5095836;28;20479;-82
2022/08/15 11:37:24;;;;;;;12.57;8.60;;;33.50;60.00;;;;;;5080119;28;20457;-80
2022/08/15 11:39:54;;;;;;;9.30;8.40;;;33.70;59.90;;;;;;5093873;28;20489;-80
2022/08/15 11:42:31;;;;;;;17.43;8.60;;;33.70;59.40;;;;;;5098436;28;20433;-80
2022/08/15 11:45:01;;;;;;;9.67;8.80;;;33.90;59.20;;;;;;5105264;28;20467;-81
2022/08/15 11:47:40;;;;;;;9.33;8.53;;;33.60;58.30;;;;;;5095888;28;20441;-83
2022/08/15 11:50:21;;;;;;;9.23;8.43;;;33.70;58.00;;;;;;5093593;28;20448;-83
2022/08/15 11:53:04;;;;;;;12.47;8.53;;;33.70;58.10;;;;;;5093239;28;20449;-84
2022/08/15 11:55:47;;;;;;;8.90;8.10;;;33.40;58.30;;;;;;5092625;28;20560;-85
2022/08/15 11:58:29;;;;;;;9.60;8.70;;;33.30;58.70;;;;;;5095214;28;20485;-82
2022/08/15 12:00:59;;;;;;;10.40;9.40;;;33.20;59.70;;;;;;5094407;28;20449;-84
2022/08/15 12:03:30;;;;;;;9.73;8.83;;;32.80;59.80;;;;;;5100537;28;20442;-84
2022/08/15 12:06:20;;;;;;;10.03;9.13;;;32.80;60.50;;;;;;5097714;28;20460;-84
2022/08/15 12:08:49;;;;;;;12.07;8.50;;;32.50;61.00;;;;;;5088949;28;20585;-81
2022/08/15 12:11:19;;;;;;;9.80;8.80;;;32.50;61.40;;;;;;5091537;28;20938;-83
2022/08/15 12:13:56;;;;;;;13.40;10.57;;;32.50;61.30;;;;;;5098923;28;20454;-82
2022/08/15 12:16:26;;;;;;;10.40;9.17;;;32.50;61.40;;;;;;5088083;28;20462;-85
2022/08/15 12:18:53;;;;;;;9.20;8.40;;;32.50;61.10;;;;;;5089521;28;20430;-84
2022/08/15 12:21:20;;;;;;;11.83;9.80;;;32.60;61.10;;;;;;5089878;28;20426;-85
2022/08/15 12:23:55;;;;;;;9.87;8.97;;;32.70;60.80;;;;;;5093097;28;20452;-84
2022/08/15 12:26:26;;;;;;;9.90;8.90;;;32.60;61.30;;;;;;5098910;28;20490;-83
2022/08/15 12:28:57;;;;;;;13.03;9.20;;;32.70;61.90;;;;;;5089357;28;20437;-84
2022/08/15 12:31:27;;;;;;;9.63;8.50;;;32.70;61.40;;;;;;5083891;28;20430;-83
2022/08/15 12:34:03;;;;;;;8.80;8.00;;;33.00;60.60;;;;;;5083804;28;20438;-85
2022/08/15 12:36:30;;;;;;;10.23;7.20;;;33.10;59.30;;;;;;5089370;28;20464;-85
2022/08/15 12:38:57;;;;;;;8.10;7.30;;;33.60;59.00;;;;;;5083812;28;20502;-84
2022/08/15 12:41:25;;;;;;;8.63;7.80;;;33.80;58.10;;;;;;5091579;28;20456;-83
2022/08/15 12:43:53;;;;;;;8.20;7.40;;;33.80;57.70;;;;;;5088926;28;20477;-84
2022/08/15 12:46:21;;;;;;;8.73;7.90;;;34.10;57.70;;;;;;5088282;28;20493;-85
2022/08/15 12:48:49;;;;;;;10.53;8.33;;;34.30;57.40;;;;;;5100953;28;20483;-84
2022/08/15 12:51:16;;;;;;;7.90;7.20;;;34.00;57.00;;;;;;5083301;28;20446;-83
2022/08/15 12:53:43;;;;;;;8.80;8.00;;;34.10;57.30;;;;;;5079171;28;20873;-85
2022/08/15 12:56:11;;;;;;;9.17;8.43;;;34.10;57.00;;;;;;5102048;28;20492;-83
2022/08/15 12:58:39;;;;;;;10.60;8.97;;;34.20;57.00;;;;;;5095799;28;20476;-83
2022/08/15 13:01:08;;;;;;;9.37;8.57;;;34.50;56.60;;;;;;5092336;28;20445;-82
2022/08/15 13:03:42;;;;;;;8.40;7.63;;;34.60;55.50;;;;;;5099877;28;20429;-83
2022/08/15 13:09:16;;;;;;;8.63;7.77;;;34.60;55.00;;;;;;5089526;28;20428;-83
2022/08/15 13:11:45;;;;;;;8.77;7.97;;;34.70;54.50;;;;;;5086641;28;20464;-82
2022/08/15 13:14:14;;;;;;;8.37;6.80;;;34.80;54.30;;;;;;5096607;28;20472;-87
2022/08/15 13:16:41;;;;;;;7.53;6.93;;;34.80;54.00;;;;;;5094965;28;20456;-85
2022/08/15 13:19:13;;;;;;;8.37;7.37;;;34.60;54.40;;;;;;5093212;28;20441;-84